sensor_id;sensor_type;location;lat;lon;timestamp;temperature;humidity
4411;DHT22;2218;51.408;7.208;2023-12-22T00:01:12;18.70;41.30
4411;DHT22;2218;51.408;7.208;2023-12-22T00:03:41;18.70;41.20
4411;DHT22;2218;51.408;7.208;2023-12-22T00:06:08;18.70;41.20
4411;DHT22;2218;51.408;7.208;2023-12-22T00:08:38;18.70;41.20
4411;DHT22;2218;51.408;7.208;2023-12-22T00:11:05;18.70;41.20
4411;DHT22;2218;51.408;7.208;2023-12-22T00:13:32;18.60;41.10
4411;DHT22;2218;51.408;7.208;2023-12-22T00:15:59;18.60;41.10
4411;DHT22;2218;51.408;7.208;2023-12-22T00:18:26;18.60;41.10
4411;DHT22;2218;51.408;7.208;2023-12-22T00:20:53;18.60;41.00
4411;DHT22;2218;51.408;7.208;2023-12-22T00:23:20;18.60;41.10
4411;DHT22;2218;51.408;7.208;2023-12-22T00:25:49;18.60;41.00
4411;DHT22;2218;51.408;7.208;2023-12-22T00:28:16;18.60;41.00
4411;DHT22;2218;51.408;7.208;2023-12-22T00:30:43;18.60;41.10
4411;DHT22;2218;51.408;7.208;2023-12-22T00:33:10;18.60;41.10
4411;DHT22;2218;51.408;7.208;2023-12-22T00:35:37;18.60;41.00
4411;DHT22;2218;51.408;7.208;2023-12-22T00:38:05;18.60;41.00
4411;DHT22;2218;51.408;7.208;2023-12-22T00:40:32;18.50;41.00
4411;DHT22;2218;51.408;7.208;2023-12-22T00:43:00;18.60;41.00
4411;DHT22;2218;51.408;7.208;2023-12-22T00:45:27;18.60;41.00
4411;DHT22;2218;51.408;7.208;2023-12-22T00:47:54;18.50;40.90
4411;DHT22;2218;51.408;7.208;2023-12-22T00:50:21;18.50;40.90
4411;DHT22;2218;51.408;7.208;2023-12-22T00:52:48;18.50;40.90
4411;DHT22;2218;51.408;7.208;2023-12-22T00:55:15;18.50;40.90
4411;DHT22;2218;51.408;7.208;2023-12-22T00:57:42;18.50;40.80
4411;DHT22;2218;51.408;7.208;2023-12-22T01:00:12;18.50;40.80
4411;DHT22;2218;51.408;7.208;2023-12-22T01:02:40;18.50;40.80
4411;DHT22;2218;51.408;7.208;2023-12-22T01:05:07;18.50;40.80
4411;DHT22;2218;51.408;7.208;2023-12-22T01:07:34;18.50;40.80
4411;DHT22;2218;51.408;7.208;2023-12-22T01:10:01;18.50;40.80
4411;DHT22;2218;51.408;7.208;2023-12-22T01:12:29;18.50;40.80
4411;DHT22;2218;51.408;7.208;2023-12-22T01:14:57;18.50;40.90
4411;DHT22;2218;51.408;7.208;2023-12-22T01:17:25;18.40;40.80
4411;DHT22;2218;51.408;7.208;2023-12-22T01:19:52;18.50;40.90
4411;DHT22;2218;51.408;7.208;2023-12-22T01:22:19;18.40;40.80
4411;DHT22;2218;51.408;7.208;2023-12-22T01:24:48;18.40;40.80
4411;DHT22;2218;51.408;7.208;2023-12-22T01:27:15;18.40;40.80
4411;DHT22;2218;51.408;7.208;2023-12-22T01:29:42;18.40;40.80
4411;DHT22;2218;51.408;7.208;2023-12-22T01:32:09;18.40;40.80
4411;DHT22;2218;51.408;7.208;2023-12-22T01:34:37;18.40;40.80
4411;DHT22;2218;51.408;7.208;2023-12-22T01:37:04;18.40;40.80
4411;DHT22;2218;51.408;7.208;2023-12-22T01:39:32;18.40;40.80
4411;DHT22;2218;51.408;7.208;2023-12-22T01:41:59;18.40;40.70
4411;DHT22;2218;51.408;7.208;2023-12-22T01:44:25;18.40;40.70
4411;DHT22;2218;51.408;7.208;2023-12-22T01:46:53;18.40;40.70
4411;DHT22;2218;51.408;7.208;2023-12-22T01:49:21;18.40;40.70
4411;DHT22;2218;51.408;7.208;2023-12-22T01:51:51;18.40;40.70
4411;DHT22;2218;51.408;7.208;2023-12-22T01:54:19;18.40;40.70
4411;DHT22;2218;51.408;7.208;2023-12-22T01:56:46;18.30;40.60
4411;DHT22;2218;51.408;7.208;2023-12-22T01:59:13;18.40;40.60
4411;DHT22;2218;51.408;7.208;2023-12-22T02:01:41;18.40;40.60
4411;DHT22;2218;51.408;7.208;2023-12-22T02:04:11;18.30;40.50
4411;DHT22;2218;51.408;7.208;2023-12-22T02:06:40;18.30;40.50
4411;DHT22;2218;51.408;7.208;2023-12-22T02:09:09;18.30;40.50
4411;DHT22;2218;51.408;7.208;2023-12-22T02:11:38;18.30;40.50
4411;DHT22;2218;51.408;7.208;2023-12-22T02:14:05;18.30;40.40
4411;DHT22;2218;51.408;7.208;2023-12-22T02:16:40;18.30;40.40
4411;DHT22;2218;51.408;7.208;2023-12-22T02:19:31;18.30;40.30
4411;DHT22;2218;51.408;7.208;2023-12-22T02:22:08;18.30;40.30
4411;DHT22;2218;51.408;7.208;2023-12-22T02:24:38;18.30;40.30
4411;DHT22;2218;51.408;7.208;2023-12-22T02:27:10;18.30;40.20
4411;DHT22;2218;51.408;7.208;2023-12-22T02:29:51;18.30;40.20
4411;DHT22;2218;51.408;7.208;2023-12-22T02:32:23;18.30;40.10
4411;DHT22;2218;51.408;7.208;2023-12-22T02:35:01;18.40;40.10
4411;DHT22;2218;51.408;7.208;2023-12-22T02:37:32;18.40;39.80
4411;DHT22;2218;51.408;7.208;2023-12-22T02:40:04;18.50;39.70
4411;DHT22;2218;51.408;7.208;2023-12-22T02:42:34;18.60;39.50
4411;DHT22;2218;51.408;7.208;2023-12-22T02:45:03;18.60;39.40
4411;DHT22;2218;51.408;7.208;2023-12-22T02:47:32;18.70;39.30
4411;DHT22;2218;51.408;7.208;2023-12-22T02:49:59;18.80;39.30
4411;DHT22;2218;51.408;7.208;2023-12-22T02:52:27;18.80;39.20
4411;DHT22;2218;51.408;7.208;2023-12-22T02:54:54;18.80;39.10
4411;DHT22;2218;51.408;7.208;2023-12-22T02:57:22;18.90;39.10
4411;DHT22;2218;51.408;7.208;2023-12-22T02:59:49;18.90;39.00
4411;DHT22;2218;51.408;7.208;2023-12-22T03:02:16;18.90;38.90
4411;DHT22;2218;51.408;7.208;2023-12-22T03:04:43;19.00;38.90
4411;DHT22;2218;51.408;7.208;2023-12-22T03:07:11;19.00;39.50
4411;DHT22;2218;51.408;7.208;2023-12-22T03:09:39;19.00;38.90
4411;DHT22;2218;51.408;7.208;2023-12-22T03:12:07;19.00;38.80
4411;DHT22;2218;51.408;7.208;2023-12-22T03:14:35;19.10;38.90
4411;DHT22;2218;51.408;7.208;2023-12-22T03:17:04;19.10;38.90
4411;DHT22;2218;51.408;7.208;2023-12-22T03:19:33;19.10;38.80
4411;DHT22;2218;51.408;7.208;2023-12-22T03:22:00;19.10;38.80
4411;DHT22;2218;51.408;7.208;2023-12-22T03:24:28;19.10;38.70
4411;DHT22;2218;51.408;7.208;2023-12-22T03:26:55;19.10;38.70
4411;DHT22;2218;51.408;7.208;2023-12-22T03:29:22;19.10;38.70
4411;DHT22;2218;51.408;7.208;2023-12-22T03:31:50;19.10;38.70
4411;DHT22;2218;51.408;7.208;2023-12-22T03:34:17;19.20;38.70
4411;DHT22;2218;51.408;7.208;2023-12-22T03:36:45;19.20;38.70
4411;DHT22;2218;51.408;7.208;2023-12-22T03:39:14;19.20;38.70
4411;DHT22;2218;51.408;7.208;2023-12-22T03:41:41;19.20;38.60
4411;DHT22;2218;51.408;7.208;2023-12-22T03:44:08;19.20;38.70
4411;DHT22;2218;51.408;7.208;2023-12-22T03:46:35;19.20;38.60
4411;DHT22;2218;51.408;7.208;2023-12-22T03:49:04;19.20;38.70
4411;DHT22;2218;51.408;7.208;2023-12-22T03:51:31;19.20;38.60
4411;DHT22;2218;51.408;7.208;2023-12-22T03:53:58;19.20;38.60
4411;DHT22;2218;51.408;7.208;2023-12-22T03:56:25;19.20;38.50
4411;DHT22;2218;51.408;7.208;2023-12-22T03:58:51;19.20;38.40
4411;DHT22;2218;51.408;7.208;2023-12-22T04:01:19;19.20;38.60
4411;DHT22;2218;51.408;7.208;2023-12-22T04:03:45;19.20;38.60
4411;DHT22;2218;51.408;7.208;2023-12-22T04:06:14;19.20;38.50
4411;DHT22;2218;51.408;7.208;2023-12-22T04:08:41;19.20;38.50
4411;DHT22;2218;51.408;7.208;2023-12-22T04:11:08;19.20;38.50
4411;DHT22;2218;51.408;7.208;2023-12-22T04:13:35;19.20;38.50
4411;DHT22;2218;51.408;7.208;2023-12-22T04:16:02;19.20;38.50
4411;DHT22;2218;51.408;7.208;2023-12-22T04:18:30;19.20;38.50
4411;DHT22;2218;51.408;7.208;2023-12-22T04:20:58;19.20;38.40
4411;DHT22;2218;51.408;7.208;2023-12-22T04:23:26;19.20;38.50
4411;DHT22;2218;51.408;7.208;2023-12-22T04:25:54;19.20;38.50
4411;DHT22;2218;51.408;7.208;2023-12-22T04:28:22;19.20;38.70
4411;DHT22;2218;51.408;7.208;2023-12-22T04:30:49;19.20;38.60
4411;DHT22;2218;51.408;7.208;2023-12-22T04:33:16;19.20;38.70
4411;DHT22;2218;51.408;7.208;2023-12-22T04:35:43;19.20;38.70
4411;DHT22;2218;51.408;7.208;2023-12-22T04:38:10;19.20;38.70
4411;DHT22;2218;51.408;7.208;2023-12-22T04:40:38;19.20;38.70
4411;DHT22;2218;51.408;7.208;2023-12-22T04:43:05;19.20;38.70
4411;DHT22;2218;51.408;7.208;2023-12-22T04:45:32;19.20;38.70
4411;DHT22;2218;51.408;7.208;2023-12-22T04:47:59;19.20;38.60
4411;DHT22;2218;51.408;7.208;2023-12-22T04:50:26;19.20;38.70
4411;DHT22;2218;51.408;7.208;2023-12-22T04:52:53;19.20;38.70
4411;DHT22;2218;51.408;7.208;2023-12-22T04:55:20;19.20;38.60
4411;DHT22;2218;51.408;7.208;2023-12-22T04:57:49;19.20;38.70
4411;DHT22;2218;51.408;7.208;2023-12-22T05:00:16;19.20;38.60
4411;DHT22;2218;51.408;7.208;2023-12-22T05:02:43;19.20;38.60
4411;DHT22;2218;51.408;7.208;2023-12-22T05:05:10;19.20;38.60
4411;DHT22;2218;51.408;7.208;2023-12-22T05:07:38;19.20;38.50
4411;DHT22;2218;51.408;7.208;2023-12-22T05:10:07;19.20;38.50
4411;DHT22;2218;51.408;7.208;2023-12-22T05:12:34;19.20;38.20
4411;DHT22;2218;51.408;7.208;2023-12-22T05:15:04;19.20;38.20
4411;DHT22;2218;51.408;7.208;2023-12-22T05:17:31;19.20;38.10
4411;DHT22;2218;51.408;7.208;2023-12-22T05:19:59;19.20;38.00
4411;DHT22;2218;51.408;7.208;2023-12-22T05:22:26;19.20;38.00
4411;DHT22;2218;51.408;7.208;2023-12-22T05:24:55;19.30;38.00
4411;DHT22;2218;51.408;7.208;2023-12-22T05:27:26;19.20;37.90
4411;DHT22;2218;51.408;7.208;2023-12-22T05:29:52;19.30;37.90
4411;DHT22;2218;51.408;7.208;2023-12-22T05:32:21;19.30;37.90
4411;DHT22;2218;51.408;7.208;2023-12-22T05:34:48;19.30;37.90
4411;DHT22;2218;51.408;7.208;2023-12-22T05:37:15;19.30;37.80
4411;DHT22;2218;51.408;7.208;2023-12-22T05:39:42;19.30;37.80
4411;DHT22;2218;51.408;7.208;2023-12-22T05:42:10;19.30;37.80
4411;DHT22;2218;51.408;7.208;2023-12-22T05:44:37;19.30;37.80
4411;DHT22;2218;51.408;7.208;2023-12-22T05:47:05;19.30;37.80
4411;DHT22;2218;51.408;7.208;2023-12-22T05:49:33;19.30;37.80
4411;DHT22;2218;51.408;7.208;2023-12-22T05:52:01;19.30;37.90
4411;DHT22;2218;51.408;7.208;2023-12-22T05:54:28;19.30;38.00
4411;DHT22;2218;51.408;7.208;2023-12-22T05:56:55;19.30;37.90
4411;DHT22;2218;51.408;7.208;2023-12-22T05:59:22;19.30;37.90
4411;DHT22;2218;51.408;7.208;2023-12-22T06:01:53;19.30;37.90
4411;DHT22;2218;51.408;7.208;2023-12-22T06:04:21;19.30;38.00
4411;DHT22;2218;51.408;7.208;2023-12-22T06:06:49;19.30;38.00
4411;DHT22;2218;51.408;7.208;2023-12-22T06:09:16;19.30;38.00
4411;DHT22;2218;51.408;7.208;2023-12-22T06:11:43;19.30;38.00
4411;DHT22;2218;51.408;7.208;2023-12-22T06:14:10;19.30;38.00
4411;DHT22;2218;51.408;7.208;2023-12-22T06:16:38;19.30;38.50
4411;DHT22;2218;51.408;7.208;2023-12-22T06:19:05;19.30;38.00
4411;DHT22;2218;51.408;7.208;2023-12-22T06:21:32;19.30;38.10
4411;DHT22;2218;51.408;7.208;2023-12-22T06:24:01;19.30;38.00
4411;DHT22;2218;51.408;7.208;2023-12-22T06:26:28;19.30;38.20
4411;DHT22;2218;51.408;7.208;2023-12-22T06:28:55;19.30;38.10
4411;DHT22;2218;51.408;7.208;2023-12-22T06:31:22;19.30;38.00
4411;DHT22;2218;51.408;7.208;2023-12-22T06:33:50;19.30;38.00
4411;DHT22;2218;51.408;7.208;2023-12-22T06:36:18;19.30;38.00
4411;DHT22;2218;51.408;7.208;2023-12-22T06:38:46;19.30;37.90
4411;DHT22;2218;51.408;7.208;2023-12-22T06:41:21;19.30;37.90
4411;DHT22;2218;51.408;7.208;2023-12-22T06:43:49;19.30;37.90
4411;DHT22;2218;51.408;7.208;2023-12-22T06:46:18;19.30;37.90
4411;DHT22;2218;51.408;7.208;2023-12-22T06:48:46;19.30;37.90
4411;DHT22;2218;51.408;7.208;2023-12-22T06:51:19;19.30;37.80
4411;DHT22;2218;51.408;7.208;2023-12-22T06:53:47;19.30;37.80
4411;DHT22;2218;51.408;7.208;2023-12-22T06:56:15;19.30;37.80
4411;DHT22;2218;51.408;7.208;2023-12-22T06:58:44;19.30;37.80
4411;DHT22;2218;51.408;7.208;2023-12-22T07:01:18;19.30;37.80
4411;DHT22;2218;51.408;7.208;2023-12-22T07:03:47;19.30;37.70
4411;DHT22;2218;51.408;7.208;2023-12-22T07:06:15;19.30;37.70
4411;DHT22;2218;51.408;7.208;2023-12-22T07:08:42;19.30;37.70
4411;DHT22;2218;51.408;7.208;2023-12-22T07:11:09;19.30;37.70
4411;DHT22;2218;51.408;7.208;2023-12-22T07:13:36;19.30;37.70
4411;DHT22;2218;51.408;7.208;2023-12-22T07:16:05;19.30;37.60
4411;DHT22;2218;51.408;7.208;2023-12-22T07:18:33;19.30;37.70
4411;DHT22;2218;51.408;7.208;2023-12-22T07:21:00;19.30;37.60
4411;DHT22;2218;51.408;7.208;2023-12-22T07:23:28;19.30;37.50
4411;DHT22;2218;51.408;7.208;2023-12-22T07:25:54;19.30;37.50
4411;DHT22;2218;51.408;7.208;2023-12-22T07:28:22;19.30;37.60
4411;DHT22;2218;51.408;7.208;2023-12-22T07:30:49;19.30;37.60
4411;DHT22;2218;51.408;7.208;2023-12-22T07:33:17;19.30;37.60
4411;DHT22;2218;51.408;7.208;2023-12-22T07:35:44;19.30;37.70
4411;DHT22;2218;51.408;7.208;2023-12-22T07:38:11;19.30;37.70
4411;DHT22;2218;51.408;7.208;2023-12-22T07:40:38;19.30;37.70
4411;DHT22;2218;51.408;7.208;2023-12-22T07:43:05;19.30;37.80
4411;DHT22;2218;51.408;7.208;2023-12-22T07:45:32;19.30;37.70
4411;DHT22;2218;51.408;7.208;2023-12-22T07:48:01;19.30;37.80
4411;DHT22;2218;51.408;7.208;2023-12-22T07:50:30;19.30;37.70
4411;DHT22;2218;51.408;7.208;2023-12-22T07:52:57;19.30;37.70
4411;DHT22;2218;51.408;7.208;2023-12-22T07:55:25;19.30;37.70
4411;DHT22;2218;51.408;7.208;2023-12-22T07:57:53;19.30;37.70
4411;DHT22;2218;51.408;7.208;2023-12-22T08:00:20;19.30;37.70
4411;DHT22;2218;51.408;7.208;2023-12-22T08:02:47;19.30;37.80
4411;DHT22;2218;51.408;7.208;2023-12-22T08:05:19;19.30;38.00
4411;DHT22;2218;51.408;7.208;2023-12-22T08:07:47;19.30;38.10
4411;DHT22;2218;51.408;7.208;2023-12-22T08:10:14;19.30;38.60
4411;DHT22;2218;51.408;7.208;2023-12-22T08:12:42;19.30;38.10
4411;DHT22;2218;51.408;7.208;2023-12-22T08:15:09;19.30;38.20
4411;DHT22;2218;51.408;7.208;2023-12-22T08:17:45;19.30;38.20
4411;DHT22;2218;51.408;7.208;2023-12-22T08:20:16;19.30;38.20
4411;DHT22;2218;51.408;7.208;2023-12-22T08:22:47;19.30;38.20
4411;DHT22;2218;51.408;7.208;2023-12-22T08:25:14;19.30;38.30
4411;DHT22;2218;51.408;7.208;2023-12-22T08:27:43;19.30;38.30
4411;DHT22;2218;51.408;7.208;2023-12-22T08:30:10;19.40;38.30
4411;DHT22;2218;51.408;7.208;2023-12-22T08:32:38;19.30;38.30
4411;DHT22;2218;51.408;7.208;2023-12-22T08:35:06;19.30;38.20
4411;DHT22;2218;51.408;7.208;2023-12-22T08:37:34;19.40;38.40
4411;DHT22;2218;51.408;7.208;2023-12-22T08:40:03;19.30;38.40
4411;DHT22;2218;51.408;7.208;2023-12-22T08:42:31;19.40;38.50
4411;DHT22;2218;51.408;7.208;2023-12-22T08:44:58;19.40;38.30
4411;DHT22;2218;51.408;7.208;2023-12-22T08:47:25;19.40;38.30
4411;DHT22;2218;51.408;7.208;2023-12-22T08:49:52;19.40;38.50
4411;DHT22;2218;51.408;7.208;2023-12-22T08:52:19;19.40;38.40
4411;DHT22;2218;51.408;7.208;2023-12-22T08:54:46;19.40;38.30
4411;DHT22;2218;51.408;7.208;2023-12-22T08:57:14;19.40;38.40
4411;DHT22;2218;51.408;7.208;2023-12-22T08:59:41;19.40;38.30
4411;DHT22;2218;51.408;7.208;2023-12-22T09:02:08;19.40;38.40
4411;DHT22;2218;51.408;7.208;2023-12-22T09:04:36;19.40;38.40
4411;DHT22;2218;51.408;7.208;2023-12-22T09:07:04;19.40;38.40
4411;DHT22;2218;51.408;7.208;2023-12-22T09:09:31;19.40;38.30
4411;DHT22;2218;51.408;7.208;2023-12-22T09:11:58;19.40;38.30
4411;DHT22;2218;51.408;7.208;2023-12-22T09:14:26;19.40;38.30
4411;DHT22;2218;51.408;7.208;2023-12-22T09:16:53;19.40;38.40
4411;DHT22;2218;51.408;7.208;2023-12-22T09:19:21;19.40;38.40
4411;DHT22;2218;51.408;7.208;2023-12-22T09:21:48;19.40;38.50
4411;DHT22;2218;51.408;7.208;2023-12-22T09:24:16;19.40;38.40
4411;DHT22;2218;51.408;7.208;2023-12-22T09:26:43;19.40;38.40
4411;DHT22;2218;51.408;7.208;2023-12-22T09:29:10;19.40;38.60
4411;DHT22;2218;51.408;7.208;2023-12-22T09:31:38;19.40;38.50
4411;DHT22;2218;51.408;7.208;2023-12-22T09:34:05;19.40;38.50
4411;DHT22;2218;51.408;7.208;2023-12-22T09:36:32;19.40;38.50
4411;DHT22;2218;51.408;7.208;2023-12-22T09:38:59;19.40;38.50
4411;DHT22;2218;51.408;7.208;2023-12-22T09:41:27;19.40;38.60
4411;DHT22;2218;51.408;7.208;2023-12-22T09:43:55;19.40;38.60
4411;DHT22;2218;51.408;7.208;2023-12-22T09:46:23;19.40;38.60
4411;DHT22;2218;51.408;7.208;2023-12-22T09:48:53;19.40;38.60
4411;DHT22;2218;51.408;7.208;2023-12-22T09:51:21;19.40;38.60
4411;DHT22;2218;51.408;7.208;2023-12-22T09:53:50;19.40;38.60
4411;DHT22;2218;51.408;7.208;2023-12-22T09:56:18;19.40;38.50
4411;DHT22;2218;51.408;7.208;2023-12-22T09:58:47;19.40;38.50
4411;DHT22;2218;51.408;7.208;2023-12-22T10:01:19;19.40;38.50
4411;DHT22;2218;51.408;7.208;2023-12-22T10:03:48;19.40;38.50
4411;DHT22;2218;51.408;7.208;2023-12-22T10:06:17;19.40;38.50
4411;DHT22;2218;51.408;7.208;2023-12-22T10:08:45;19.40;38.50
4411;DHT22;2218;51.408;7.208;2023-12-22T10:11:17;19.40;38.60
4411;DHT22;2218;51.408;7.208;2023-12-22T10:13:47;19.40;38.60
4411;DHT22;2218;51.408;7.208;2023-12-22T10:16:18;19.40;38.70
4411;DHT22;2218;51.408;7.208;2023-12-22T10:18:45;19.40;38.70
4411;DHT22;2218;51.408;7.208;2023-12-22T10:21:12;19.40;38.70
4411;DHT22;2218;51.408;7.208;2023-12-22T10:23:41;19.40;38.70
4411;DHT22;2218;51.408;7.208;2023-12-22T10:26:11;19.40;38.80
4411;DHT22;2218;51.408;7.208;2023-12-22T10:28:38;19.40;38.80
4411;DHT22;2218;51.408;7.208;2023-12-22T10:31:05;19.40;38.70
4411;DHT22;2218;51.408;7.208;2023-12-22T10:33:33;19.40;38.70
4411;DHT22;2218;51.408;7.208;2023-12-22T10:36:00;19.40;38.70
4411;DHT22;2218;51.408;7.208;2023-12-22T10:38:32;19.40;38.60
4411;DHT22;2218;51.408;7.208;2023-12-22T10:41:02;19.40;38.70
4411;DHT22;2218;51.408;7.208;2023-12-22T10:43:30;19.40;38.70
4411;DHT22;2218;51.408;7.208;2023-12-22T10:45:57;19.40;38.70
4411;DHT22;2218;51.408;7.208;2023-12-22T10:48:24;19.40;38.70
4411;DHT22;2218;51.408;7.208;2023-12-22T10:50:51;19.40;38.60
4411;DHT22;2218;51.408;7.208;2023-12-22T10:53:20;19.40;38.70
4411;DHT22;2218;51.408;7.208;2023-12-22T10:55:49;19.40;38.60
4411;DHT22;2218;51.408;7.208;2023-12-22T10:58:18;19.40;38.60
4411;DHT22;2218;51.408;7.208;2023-12-22T11:00:45;19.40;38.80
4411;DHT22;2218;51.408;7.208;2023-12-22T11:03:17;19.40;38.90
4411;DHT22;2218;51.408;7.208;2023-12-22T11:05:54;19.40;38.80
4411;DHT22;2218;51.408;7.208;2023-12-22T11:08:26;19.40;39.00
4411;DHT22;2218;51.408;7.208;2023-12-22T11:10:57;19.40;39.10
4411;DHT22;2218;51.408;7.208;2023-12-22T11:13:28;19.40;39.10
4411;DHT22;2218;51.408;7.208;2023-12-22T11:15:57;19.40;39.20
4411;DHT22;2218;51.408;7.208;2023-12-22T11:18:26;19.40;39.20
4411;DHT22;2218;51.408;7.208;2023-12-22T11:20:55;19.40;39.30
4411;DHT22;2218;51.408;7.208;2023-12-22T11:23:23;19.40;39.30
4411;DHT22;2218;51.408;7.208;2023-12-22T11:25:52;19.40;39.30
4411;DHT22;2218;51.408;7.208;2023-12-22T11:28:21;19.40;39.40
4411;DHT22;2218;51.408;7.208;2023-12-22T11:30:52;19.40;39.40
4411;DHT22;2218;51.408;7.208;2023-12-22T11:33:25;19.40;39.40
4411;DHT22;2218;51.408;7.208;2023-12-22T11:35:56;19.40;39.50
4411;DHT22;2218;51.408;7.208;2023-12-22T11:38:23;19.40;39.60
4411;DHT22;2218;51.408;7.208;2023-12-22T11:40:52;19.40;39.60
4411;DHT22;2218;51.408;7.208;2023-12-22T11:43:21;19.40;39.60
4411;DHT22;2218;51.408;7.208;2023-12-22T11:45:48;19.40;39.70
4411;DHT22;2218;51.408;7.208;2023-12-22T11:48:17;19.40;39.70
4411;DHT22;2218;51.408;7.208;2023-12-22T11:50:44;19.40;39.80
4411;DHT22;2218;51.408;7.208;2023-12-22T11:53:18;19.40;39.80
4411;DHT22;2218;51.408;7.208;2023-12-22T11:55:56;19.40;39.80
4411;DHT22;2218;51.408;7.208;2023-12-22T11:58:35;19.40;39.80
4411;DHT22;2218;51.408;7.208;2023-12-22T12:01:07;19.40;39.90
4411;DHT22;2218;51.408;7.208;2023-12-22T12:03:48;19.40;40.00
4411;DHT22;2218;51.408;7.208;2023-12-22T12:06:22;19.30;39.90
4411;DHT22;2218;51.408;7.208;2023-12-22T12:08:58;19.30;39.90
4411;DHT22;2218;51.408;7.208;2023-12-22T12:14:41;19.30;40.10
4411;DHT22;2218;51.408;7.208;2023-12-22T12:17:09;19.30;40.10
4411;DHT22;2218;51.408;7.208;2023-12-22T12:19:39;19.30;40.20
4411;DHT22;2218;51.408;7.208;2023-12-22T12:22:07;19.30;40.20
4411;DHT22;2218;51.408;7.208;2023-12-22T12:24:36;19.30;40.20
4411;DHT22;2218;51.408;7.208;2023-12-22T12:27:04;19.30;40.20
4411;DHT22;2218;51.408;7.208;2023-12-22T12:29:32;19.30;40.30
4411;DHT22;2218;51.408;7.208;2023-12-22T12:32:03;19.30;40.30
4411;DHT22;2218;51.408;7.208;2023-12-22T12:34:31;19.30;40.40
4411;DHT22;2218;51.408;7.208;2023-12-22T12:37:00;19.30;40.40
4411;DHT22;2218;51.408;7.208;2023-12-22T12:39:30;19.30;40.90
4411;DHT22;2218;51.408;7.208;2023-12-22T12:41:59;19.30;40.40
4411;DHT22;2218;51.408;7.208;2023-12-22T12:44:29;19.30;40.30
4411;DHT22;2218;51.408;7.208;2023-12-22T12:46:58;19.30;40.40
4411;DHT22;2218;51.408;7.208;2023-12-22T12:49:25;19.30;40.40
4411;DHT22;2218;51.408;7.208;2023-12-22T12:51:55;19.40;40.50
4411;DHT22;2218;51.408;7.208;2023-12-22T12:54:23;19.40;40.60
4411;DHT22;2218;51.408;7.208;2023-12-22T12:56:50;19.30;40.50
4411;DHT22;2218;51.408;7.208;2023-12-22T12:59:18;19.40;40.60
4411;DHT22;2218;51.408;7.208;2023-12-22T13:01:46;19.30;40.60
4411;DHT22;2218;51.408;7.208;2023-12-22T13:04:15;19.40;40.60
4411;DHT22;2218;51.408;7.208;2023-12-22T13:06:45;19.40;40.70
4411;DHT22;2218;51.408;7.208;2023-12-22T13:09:13;19.40;40.70
4411;DHT22;2218;51.408;7.208;2023-12-22T13:11:43;19.40;40.70
4411;DHT22;2218;51.408;7.208;2023-12-22T13:14:11;19.40;40.60
4411;DHT22;2218;51.408;7.208;2023-12-22T13:16:39;19.40;40.70
4411;DHT22;2218;51.408;7.208;2023-12-22T13:19:06;19.40;40.70
4411;DHT22;2218;51.408;7.208;2023-12-22T13:21:34;19.40;40.70
4411;DHT22;2218;51.408;7.208;2023-12-22T13:24:09;19.40;40.80
4411;DHT22;2218;51.408;7.208;2023-12-22T13:26:37;19.40;40.80
4411;DHT22;2218;51.408;7.208;2023-12-22T13:29:06;19.40;40.80
4411;DHT22;2218;51.408;7.208;2023-12-22T13:31:33;19.40;40.80
4411;DHT22;2218;51.408;7.208;2023-12-22T13:34:03;19.40;40.80
4411;DHT22;2218;51.408;7.208;2023-12-22T13:36:34;19.40;40.80
4411;DHT22;2218;51.408;7.208;2023-12-22T13:39:02;19.40;40.80
4411;DHT22;2218;51.408;7.208;2023-12-22T13:41:31;19.40;40.90
4411;DHT22;2218;51.408;7.208;2023-12-22T13:44:03;19.40;40.80
4411;DHT22;2218;51.408;7.208;2023-12-22T13:46:33;19.40;40.80
4411;DHT22;2218;51.408;7.208;2023-12-22T13:49:01;19.40;40.90
4411;DHT22;2218;51.408;7.208;2023-12-22T13:51:38;19.40;41.00
4411;DHT22;2218;51.408;7.208;2023-12-22T13:54:06;19.40;40.90
4411;DHT22;2218;51.408;7.208;2023-12-22T13:56:34;19.40;41.00
4411;DHT22;2218;51.408;7.208;2023-12-22T13:59:02;19.40;41.00
4411;DHT22;2218;51.408;7.208;2023-12-22T14:01:29;19.40;41.00
4411;DHT22;2218;51.408;7.208;2023-12-22T14:03:59;19.40;41.10
4411;DHT22;2218;51.408;7.208;2023-12-22T14:06:26;19.40;41.00
4411;DHT22;2218;51.408;7.208;2023-12-22T14:08:54;19.40;41.00
4411;DHT22;2218;51.408;7.208;2023-12-22T14:11:21;19.40;41.00
4411;DHT22;2218;51.408;7.208;2023-12-22T14:13:50;19.40;41.10
4411;DHT22;2218;51.408;7.208;2023-12-22T14:16:17;19.40;41.10
4411;DHT22;2218;51.408;7.208;2023-12-22T14:18:45;19.40;41.10
4411;DHT22;2218;51.408;7.208;2023-12-22T14:21:12;19.40;41.10
4411;DHT22;2218;51.408;7.208;2023-12-22T14:23:39;19.40;41.10
4411;DHT22;2218;51.408;7.208;2023-12-22T14:26:07;19.40;41.10
4411;DHT22;2218;51.408;7.208;2023-12-22T14:28:35;19.40;41.10
4411;DHT22;2218;51.408;7.208;2023-12-22T14:31:02;19.40;41.10
4411;DHT22;2218;51.408;7.208;2023-12-22T14:33:29;19.40;41.10
4411;DHT22;2218;51.408;7.208;2023-12-22T14:35:57;19.40;41.10
4411;DHT22;2218;51.408;7.208;2023-12-22T14:38:24;19.40;41.20
4411;DHT22;2218;51.408;7.208;2023-12-22T14:40:51;19.40;41.20
4411;DHT22;2218;51.408;7.208;2023-12-22T14:43:18;19.40;41.20
4411;DHT22;2218;51.408;7.208;2023-12-22T14:45:45;19.40;41.20
4411;DHT22;2218;51.408;7.208;2023-12-22T14:48:12;19.40;41.20
4411;DHT22;2218;51.408;7.208;2023-12-22T14:50:40;19.40;41.20
4411;DHT22;2218;51.408;7.208;2023-12-22T14:53:08;19.40;41.30
4411;DHT22;2218;51.408;7.208;2023-12-22T14:55:35;19.40;41.20
4411;DHT22;2218;51.408;7.208;2023-12-22T14:58:02;19.40;41.20
4411;DHT22;2218;51.408;7.208;2023-12-22T15:00:32;19.40;41.30
4411;DHT22;2218;51.408;7.208;2023-12-22T15:02:59;19.40;41.30
4411;DHT22;2218;51.408;7.208;2023-12-22T15:05:27;19.40;41.30
4411;DHT22;2218;51.408;7.208;2023-12-22T15:07:55;19.40;41.30
4411;DHT22;2218;51.408;7.208;2023-12-22T15:10:23;19.40;41.40
4411;DHT22;2218;51.408;7.208;2023-12-22T15:12:50;19.40;41.40
4411;DHT22;2218;51.408;7.208;2023-12-22T15:15:18;19.40;41.40
4411;DHT22;2218;51.408;7.208;2023-12-22T15:17:45;19.40;41.40
4411;DHT22;2218;51.408;7.208;2023-12-22T15:20:13;19.40;41.40
4411;DHT22;2218;51.408;7.208;2023-12-22T15:22:40;19.40;41.50
4411;DHT22;2218;51.408;7.208;2023-12-22T15:25:07;19.40;41.40
4411;DHT22;2218;51.408;7.208;2023-12-22T15:27:35;19.40;41.40
4411;DHT22;2218;51.408;7.208;2023-12-22T15:30:05;19.40;41.50
4411;DHT22;2218;51.408;7.208;2023-12-22T15:32:32;19.40;41.40
4411;DHT22;2218;51.408;7.208;2023-12-22T15:34:59;19.50;41.60
4411;DHT22;2218;51.408;7.208;2023-12-22T15:37:26;19.40;41.40
4411;DHT22;2218;51.408;7.208;2023-12-22T15:39:53;19.40;41.50
4411;DHT22;2218;51.408;7.208;2023-12-22T15:42:20;19.40;41.50
4411;DHT22;2218;51.408;7.208;2023-12-22T15:44:48;19.50;41.50
4411;DHT22;2218;51.408;7.208;2023-12-22T15:47:15;19.50;41.60
4411;DHT22;2218;51.408;7.208;2023-12-22T15:49:42;19.50;41.50
4411;DHT22;2218;51.408;7.208;2023-12-22T15:52:09;19.50;41.60
4411;DHT22;2218;51.408;7.208;2023-12-22T15:54:38;19.40;41.50
4411;DHT22;2218;51.408;7.208;2023-12-22T15:57:05;19.50;41.70
4411;DHT22;2218;51.408;7.208;2023-12-22T15:59:32;19.40;41.60
4411;DHT22;2218;51.408;7.208;2023-12-22T16:02:00;19.40;41.60
4411;DHT22;2218;51.408;7.208;2023-12-22T16:04:29;19.40;41.60
4411;DHT22;2218;51.408;7.208;2023-12-22T16:06:56;19.40;41.60
4411;DHT22;2218;51.408;7.208;2023-12-22T16:09:23;19.40;41.60
4411;DHT22;2218;51.408;7.208;2023-12-22T16:11:50;19.50;41.70